sensor_id;sensor_type;location;lat;lon;timestamp;temperature;humidity
1359;DHT22;673;48.098;14.422;2023-06-22T00:01:16;20.30;99.90
1359;DHT22;673;48.098;14.422;2023-06-22T00:03:43;20.30;99.90
1359;DHT22;673;48.098;14.422;2023-06-22T00:06:10;20.20;99.90
1359;DHT22;673;48.098;14.422;2023-06-22T00:08:38;20.10;99.90
1359;DHT22;673;48.098;14.422;2023-06-22T00:11:05;19.90;99.90
1359;DHT22;673;48.098;14.422;2023-06-22T00:13:32;19.80;99.90
1359;DHT22;673;48.098;14.422;2023-06-22T00:15:59;19.90;99.90
1359;DHT22;673;48.098;14.422;2023-06-22T00:18:26;19.80;99.90
1359;DHT22;673;48.098;14.422;2023-06-22T00:20:54;19.80;99.90
1359;DHT22;673;48.098;14.422;2023-06-22T00:23:23;19.80;99.90
1359;DHT22;673;48.098;14.422;2023-06-22T00:25:52;19.80;99.90
1359;DHT22;673;48.098;14.422;2023-06-22T00:28:19;19.70;99.90
1359;DHT22;673;48.098;14.422;2023-06-22T00:30:46;19.70;99.90
1359;DHT22;673;48.098;14.422;2023-06-22T00:33:14;19.70;99.90
1359;DHT22;673;48.098;14.422;2023-06-22T00:35:41;19.50;99.90
1359;DHT22;673;48.098;14.422;2023-06-22T00:38:08;19.40;99.90
1359;DHT22;673;48.098;14.422;2023-06-22T00:40:36;19.30;99.90
1359;DHT22;673;48.098;14.422;2023-06-22T00:43:06;19.30;99.90
1359;DHT22;673;48.098;14.422;2023-06-22T00:45:33;19.30;99.90
1359;DHT22;673;48.098;14.422;2023-06-22T00:48:00;19.30;99.90
1359;DHT22;673;48.098;14.422;2023-06-22T00:50:30;19.30;99.90
1359;DHT22;673;48.098;14.422;2023-06-22T00:53:00;19.30;99.90
1359;DHT22;673;48.098;14.422;2023-06-22T00:55:29;19.30;99.90
1359;DHT22;673;48.098;14.422;2023-06-22T00:57:56;19.30;99.90
1359;DHT22;673;48.098;14.422;2023-06-22T01:00:24;19.30;99.90
1359;DHT22;673;48.098;14.422;2023-06-22T01:02:52;19.40;99.90
1359;DHT22;673;48.098;14.422;2023-06-22T01:05:20;19.40;99.90
1359;DHT22;673;48.098;14.422;2023-06-22T01:08:02;19.40;99.90
1359;DHT22;673;48.098;14.422;2023-06-22T01:10:35;19.50;99.90
1359;DHT22;673;48.098;14.422;2023-06-22T01:13:11;19.50;99.90
1359;DHT22;673;48.098;14.422;2023-06-22T01:15:45;19.50;99.90
1359;DHT22;673;48.098;14.422;2023-06-22T01:18:15;19.50;99.90
1359;DHT22;673;48.098;14.422;2023-06-22T01:20:44;19.70;99.90
1359;DHT22;673;48.098;14.422;2023-06-22T01:23:20;19.40;99.90
1359;DHT22;673;48.098;14.422;2023-06-22T01:25:59;19.30;99.90
1359;DHT22;673;48.098;14.422;2023-06-22T01:28:45;19.20;99.90
1359;DHT22;673;48.098;14.422;2023-06-22T01:31:15;19.10;99.90
1359;DHT22;673;48.098;14.422;2023-06-22T01:33:46;19.10;99.90
1359;DHT22;673;48.098;14.422;2023-06-22T01:36:15;18.80;99.90
1359;DHT22;673;48.098;14.422;2023-06-22T01:38:43;18.60;99.90
1359;DHT22;673;48.098;14.422;2023-06-22T01:41:12;18.40;99.90
1359;DHT22;673;48.098;14.422;2023-06-22T01:43:40;18.40;99.90
1359;DHT22;673;48.098;14.422;2023-06-22T01:46:09;18.30;99.90
1359;DHT22;673;48.098;14.422;2023-06-22T01:48:36;18.30;99.90
1359;DHT22;673;48.098;14.422;2023-06-22T01:51:04;18.40;99.90
1359;DHT22;673;48.098;14.422;2023-06-22T01:53:31;18.60;99.90
1359;DHT22;673;48.098;14.422;2023-06-22T01:55:58;18.80;99.90
1359;DHT22;673;48.098;14.422;2023-06-22T01:58:27;18.90;99.90
1359;DHT22;673;48.098;14.422;2023-06-22T02:00:58;18.90;99.90
1359;DHT22;673;48.098;14.422;2023-06-22T02:03:33;18.90;99.90
1359;DHT22;673;48.098;14.422;2023-06-22T02:06:04;18.90;99.90
1359;DHT22;673;48.098;14.422;2023-06-22T02:08:36;18.90;99.90
1359;DHT22;673;48.098;14.422;2023-06-22T02:11:03;18.90;99.90
1359;DHT22;673;48.098;14.422;2023-06-22T02:13:32;18.90;99.90
1359;DHT22;673;48.098;14.422;2023-06-22T02:16:00;18.90;99.90
1359;DHT22;673;48.098;14.422;2023-06-22T02:18:28;18.90;99.90
1359;DHT22;673;48.098;14.422;2023-06-22T02:20:56;18.90;99.90
1359;DHT22;673;48.098;14.422;2023-06-22T02:23:23;19.00;99.90
1359;DHT22;673;48.098;14.422;2023-06-22T02:25:50;19.00;99.90
1359;DHT22;673;48.098;14.422;2023-06-22T02:28:17;19.00;99.90
1359;DHT22;673;48.098;14.422;2023-06-22T02:30:44;19.10;99.90
1359;DHT22;673;48.098;14.422;2023-06-22T02:33:11;19.10;99.90
1359;DHT22;673;48.098;14.422;2023-06-22T02:35:37;19.00;99.90
1359;DHT22;673;48.098;14.422;2023-06-22T02:38:06;19.00;99.90
1359;DHT22;673;48.098;14.422;2023-06-22T02:40:34;19.00;99.90
1359;DHT22;673;48.098;14.422;2023-06-22T02:43:01;18.90;99.90
1359;DHT22;673;48.098;14.422;2023-06-22T02:45:28;18.80;99.90
1359;DHT22;673;48.098;14.422;2023-06-22T02:47:55;18.80;99.90
1359;DHT22;673;48.098;14.422;2023-06-22T02:50:22;18.70;99.90
1359;DHT22;673;48.098;14.422;2023-06-22T02:52:50;18.60;99.90
1359;DHT22;673;48.098;14.422;2023-06-22T02:55:18;18.60;99.90
1359;DHT22;673;48.098;14.422;2023-06-22T02:57:45;18.60;99.90
1359;DHT22;673;48.098;14.422;2023-06-22T03:00:14;18.40;99.90
1359;DHT22;673;48.098;14.422;2023-06-22T03:02:43;18.40;99.90
1359;DHT22;673;48.098;14.422;2023-06-22T03:05:11;18.30;99.90
1359;DHT22;673;48.098;14.422;2023-06-22T03:07:40;18.20;99.90
1359;DHT22;673;48.098;14.422;2023-06-22T03:10:08;18.30;99.90
1359;DHT22;673;48.098;14.422;2023-06-22T03:12:37;18.30;99.90
1359;DHT22;673;48.098;14.422;2023-06-22T03:15:05;18.30;99.90
1359;DHT22;673;48.098;14.422;2023-06-22T03:17:33;18.40;99.90
1359;DHT22;673;48.098;14.422;2023-06-22T03:20:00;18.40;99.90
1359;DHT22;673;48.098;14.422;2023-06-22T03:22:32;18.50;99.90
1359;DHT22;673;48.098;14.422;2023-06-22T03:24:59;18.40;99.90
1359;DHT22;673;48.098;14.422;2023-06-22T03:27:26;18.40;99.90
1359;DHT22;673;48.098;14.422;2023-06-22T03:29:56;18.40;99.90
1359;DHT22;673;48.098;14.422;2023-06-22T03:32:23;18.50;99.90
1359;DHT22;673;48.098;14.422;2023-06-22T03:34:51;18.50;99.90
1359;DHT22;673;48.098;14.422;2023-06-22T03:37:17;18.50;99.90
1359;DHT22;673;48.098;14.422;2023-06-22T03:39:44;18.50;99.90
1359;DHT22;673;48.098;14.422;2023-06-22T03:42:11;18.60;99.90
1359;DHT22;673;48.098;14.422;2023-06-22T03:44:38;18.60;99.90
1359;DHT22;673;48.098;14.422;2023-06-22T03:47:07;18.60;99.90
1359;DHT22;673;48.098;14.422;2023-06-22T03:49:35;18.60;99.90
1359;DHT22;673;48.098;14.422;2023-06-22T03:52:02;18.70;99.90
1359;DHT22;673;48.098;14.422;2023-06-22T03:54:30;18.80;99.90
1359;DHT22;673;48.098;14.422;2023-06-22T03:56:57;18.90;99.90
1359;DHT22;673;48.098;14.422;2023-06-22T03:59:25;19.00;99.90
1359;DHT22;673;48.098;14.422;2023-06-22T04:01:52;19.20;99.90
1359;DHT22;673;48.098;14.422;2023-06-22T04:04:20;19.20;99.90
1359;DHT22;673;48.098;14.422;2023-06-22T04:06:47;19.20;99.90
1359;DHT22;673;48.098;14.422;2023-06-22T04:09:14;19.20;99.90
1359;DHT22;673;48.098;14.422;2023-06-22T04:11:41;19.30;99.90
1359;DHT22;673;48.098;14.422;2023-06-22T04:14:08;19.30;99.90
1359;DHT22;673;48.098;14.422;2023-06-22T04:16:35;19.30;99.90
1359;DHT22;673;48.098;14.422;2023-06-22T04:19:02;19.40;99.90
1359;DHT22;673;48.098;14.422;2023-06-22T04:21:31;19.40;99.90
1359;DHT22;673;48.098;14.422;2023-06-22T04:23:58;19.20;99.90
1359;DHT22;673;48.098;14.422;2023-06-22T04:26:25;19.30;99.90
1359;DHT22;673;48.098;14.422;2023-06-22T04:28:52;19.40;99.90
1359;DHT22;673;48.098;14.422;2023-06-22T04:31:21;19.50;99.90
1359;DHT22;673;48.098;14.422;2023-06-22T04:33:57;19.60;99.90
1359;DHT22;673;48.098;14.422;2023-06-22T04:36:33;19.60;99.90
1359;DHT22;673;48.098;14.422;2023-06-22T04:39:04;19.70;99.90
1359;DHT22;673;48.098;14.422;2023-06-22T04:41:31;19.70;99.90
1359;DHT22;673;48.098;14.422;2023-06-22T04:44:09;19.70;99.90
1359;DHT22;673;48.098;14.422;2023-06-22T04:46:36;19.80;99.90
1359;DHT22;673;48.098;14.422;2023-06-22T04:49:04;19.70;99.90
1359;DHT22;673;48.098;14.422;2023-06-22T04:51:41;19.80;99.90
1359;DHT22;673;48.098;14.422;2023-06-22T04:54:09;19.80;99.90
1359;DHT22;673;48.098;14.422;2023-06-22T04:56:36;19.90;99.90
1359;DHT22;673;48.098;14.422;2023-06-22T04:59:06;20.00;99.90
1359;DHT22;673;48.098;14.422;2023-06-22T05:01:34;20.20;99.90
1359;DHT22;673;48.098;14.422;2023-06-22T05:04:01;20.30;99.90
1359;DHT22;673;48.098;14.422;2023-06-22T05:06:29;20.40;99.90
1359;DHT22;673;48.098;14.422;2023-06-22T05:08:57;20.40;99.90
1359;DHT22;673;48.098;14.422;2023-06-22T05:11:25;20.40;99.90
1359;DHT22;673;48.098;14.422;2023-06-22T05:13:52;20.50;99.90
1359;DHT22;673;48.098;14.422;2023-06-22T05:16:20;20.60;99.90
1359;DHT22;673;48.098;14.422;2023-06-22T05:18:51;20.80;99.90
1359;DHT22;673;48.098;14.422;2023-06-22T05:21:21;21.00;99.90
1359;DHT22;673;48.098;14.422;2023-06-22T05:23:48;21.00;99.90
1359;DHT22;673;48.098;14.422;2023-06-22T05:26:16;21.10;99.90
1359;DHT22;673;48.098;14.422;2023-06-22T05:28:43;21.20;99.90
1359;DHT22;673;48.098;14.422;2023-06-22T05:31:12;21.30;99.90
1359;DHT22;673;48.098;14.422;2023-06-22T05:33:39;21.50;99.90
1359;DHT22;673;48.098;14.422;2023-06-22T05:36:06;21.80;99.90
1359;DHT22;673;48.098;14.422;2023-06-22T05:38:33;22.00;99.90
1359;DHT22;673;48.098;14.422;2023-06-22T05:41:00;22.20;99.90
1359;DHT22;673;48.098;14.422;2023-06-22T05:43:29;22.10;99.90
1359;DHT22;673;48.098;14.422;2023-06-22T05:45:56;22.20;99.90
1359;DHT22;673;48.098;14.422;2023-06-22T05:48:23;22.20;99.90
1359;DHT22;673;48.098;14.422;2023-06-22T05:50:50;22.40;99.90
1359;DHT22;673;48.098;14.422;2023-06-22T05:53:17;22.40;99.90
1359;DHT22;673;48.098;14.422;2023-06-22T05:55:44;22.50;99.90
1359;DHT22;673;48.098;14.422;2023-06-22T05:58:11;22.60;99.90
1359;DHT22;673;48.098;14.422;2023-06-22T06:00:40;22.70;99.90
1359;DHT22;673;48.098;14.422;2023-06-22T06:03:07;22.80;99.90
1359;DHT22;673;48.098;14.422;2023-06-22T06:05:34;22.80;99.90
1359;DHT22;673;48.098;14.422;2023-06-22T06:08:03;23.00;99.90
1359;DHT22;673;48.098;14.422;2023-06-22T06:10:30;22.90;99.90
1359;DHT22;673;48.098;14.422;2023-06-22T06:12:58;23.00;99.90
1359;DHT22;673;48.098;14.422;2023-06-22T06:15:27;23.10;99.90
1359;DHT22;673;48.098;14.422;2023-06-22T06:17:56;23.10;99.90
1359;DHT22;673;48.098;14.422;2023-06-22T06:20:24;23.30;99.90
1359;DHT22;673;48.098;14.422;2023-06-22T06:22:51;23.40;98.90
1359;DHT22;673;48.098;14.422;2023-06-22T06:25:19;23.70;99.10
1359;DHT22;673;48.098;14.422;2023-06-22T06:27:48;23.80;97.90
1359;DHT22;673;48.098;14.422;2023-06-22T06:30:17;23.80;99.60
1359;DHT22;673;48.098;14.422;2023-06-22T06:32:45;24.00;96.40
1359;DHT22;673;48.098;14.422;2023-06-22T06:35:14;23.90;98.00
1359;DHT22;673;48.098;14.422;2023-06-22T06:37:43;23.90;98.50
1359;DHT22;673;48.098;14.422;2023-06-22T06:40:12;24.00;97.80
1359;DHT22;673;48.098;14.422;2023-06-22T06:42:40;24.20;97.70
1359;DHT22;673;48.098;14.422;2023-06-22T06:45:10;24.30;97.70
1359;DHT22;673;48.098;14.422;2023-06-22T06:47:37;24.30;97.30
1359;DHT22;673;48.098;14.422;2023-06-22T06:50:05;24.50;97.20
1359;DHT22;673;48.098;14.422;2023-06-22T06:52:34;24.60;96.70
1359;DHT22;673;48.098;14.422;2023-06-22T06:55:01;24.60;96.40
1359;DHT22;673;48.098;14.422;2023-06-22T06:57:30;24.70;96.20
1359;DHT22;673;48.098;14.422;2023-06-22T06:59:58;24.80;96.00
1359;DHT22;673;48.098;14.422;2023-06-22T07:02:26;24.70;95.80
1359;DHT22;673;48.098;14.422;2023-06-22T07:04:53;25.10;94.90
1359;DHT22;673;48.098;14.422;2023-06-22T07:07:23;25.20;94.90
1359;DHT22;673;48.098;14.422;2023-06-22T07:09:52;25.60;94.20
1359;DHT22;673;48.098;14.422;2023-06-22T07:12:18;25.50;93.60
1359;DHT22;673;48.098;14.422;2023-06-22T07:14:45;25.50;93.40
1359;DHT22;673;48.098;14.422;2023-06-22T07:17:12;25.50;93.00
1359;DHT22;673;48.098;14.422;2023-06-22T07:19:39;25.50;93.90
1359;DHT22;673;48.098;14.422;2023-06-22T07:22:08;25.90;94.30
1359;DHT22;673;48.098;14.422;2023-06-22T07:24:34;26.00;93.00
1359;DHT22;673;48.098;14.422;2023-06-22T07:27:04;26.30;92.10
1359;DHT22;673;48.098;14.422;2023-06-22T07:29:32;26.40;92.20
1359;DHT22;673;48.098;14.422;2023-06-22T07:31:59;26.20;91.90
1359;DHT22;673;48.098;14.422;2023-06-22T07:34:26;26.40;92.30
1359;DHT22;673;48.098;14.422;2023-06-22T07:36:53;26.20;92.60
1359;DHT22;673;48.098;14.422;2023-06-22T07:39:20;26.20;92.90
1359;DHT22;673;48.098;14.422;2023-06-22T07:41:51;26.50;91.80
1359;DHT22;673;48.098;14.422;2023-06-22T07:44:19;26.70;89.90
1359;DHT22;673;48.098;14.422;2023-06-22T07:46:46;26.80;90.80
1359;DHT22;673;48.098;14.422;2023-06-22T07:49:13;27.10;91.30
1359;DHT22;673;48.098;14.422;2023-06-22T07:51:40;26.90;92.20
1359;DHT22;673;48.098;14.422;2023-06-22T07:54:08;27.10;90.40
1359;DHT22;673;48.098;14.422;2023-06-22T07:56:36;27.00;90.00
1359;DHT22;673;48.098;14.422;2023-06-22T07:59:03;26.70;91.40
1359;DHT22;673;48.098;14.422;2023-06-22T08:01:31;26.50;90.90
1359;DHT22;673;48.098;14.422;2023-06-22T08:03:58;26.20;91.80
1359;DHT22;673;48.098;14.422;2023-06-22T08:06:25;26.30;91.40
1359;DHT22;673;48.098;14.422;2023-06-22T08:08:52;26.20;91.80
1359;DHT22;673;48.098;14.422;2023-06-22T08:11:22;26.60;93.30
1359;DHT22;673;48.098;14.422;2023-06-22T08:13:51;27.00;91.80
1359;DHT22;673;48.098;14.422;2023-06-22T08:16:17;27.20;91.30
1359;DHT22;673;48.098;14.422;2023-06-22T08:18:46;27.20;91.40
1359;DHT22;673;48.098;14.422;2023-06-22T08:21:13;27.50;91.30
1359;DHT22;673;48.098;14.422;2023-06-22T08:23:41;27.70;87.10
1359;DHT22;673;48.098;14.422;2023-06-22T08:26:08;27.70;89.10
1359;DHT22;673;48.098;14.422;2023-06-22T08:28:35;27.60;89.90
1359;DHT22;673;48.098;14.422;2023-06-22T08:31:02;27.90;90.20
1359;DHT22;673;48.098;14.422;2023-06-22T08:33:29;28.20;87.50
1359;DHT22;673;48.098;14.422;2023-06-22T08:35:58;27.90;86.20
1359;DHT22;673;48.098;14.422;2023-06-22T08:38:25;28.10;85.80
1359;DHT22;673;48.098;14.422;2023-06-22T08:40:52;28.10;88.60
1359;DHT22;673;48.098;14.422;2023-06-22T08:43:19;28.00;87.40
1359;DHT22;673;48.098;14.422;2023-06-22T08:45:46;27.60;87.70
1359;DHT22;673;48.098;14.422;2023-06-22T08:48:13;27.60;90.90
1359;DHT22;673;48.098;14.422;2023-06-22T08:50:40;27.50;88.30
1359;DHT22;673;48.098;14.422;2023-06-22T08:53:08;28.00;87.20
1359;DHT22;673;48.098;14.422;2023-06-22T08:55:35;28.30;90.20
1359;DHT22;673;48.098;14.422;2023-06-22T08:58:02;28.60;88.80
1359;DHT22;673;48.098;14.422;2023-06-22T09:00:30;28.60;82.80
1359;DHT22;673;48.098;14.422;2023-06-22T09:03:00;28.90;86.20
1359;DHT22;673;48.098;14.422;2023-06-22T09:05:27;28.90;83.60
1359;DHT22;673;48.098;14.422;2023-06-22T09:07:55;29.10;84.10
1359;DHT22;673;48.098;14.422;2023-06-22T09:10:25;29.40;81.90
1359;DHT22;673;48.098;14.422;2023-06-22T09:12:52;29.40;79.20
1359;DHT22;673;48.098;14.422;2023-06-22T09:15:19;29.00;79.40
1359;DHT22;673;48.098;14.422;2023-06-22T09:17:46;29.00;81.20
1359;DHT22;673;48.098;14.422;2023-06-22T09:20:13;29.10;81.60
1359;DHT22;673;48.098;14.422;2023-06-22T09:22:41;29.10;80.60
1359;DHT22;673;48.098;14.422;2023-06-22T09:25:09;29.30;79.10
1359;DHT22;673;48.098;14.422;2023-06-22T09:27:38;29.20;79.50
1359;DHT22;673;48.098;14.422;2023-06-22T09:30:06;29.40;77.20
1359;DHT22;673;48.098;14.422;2023-06-22T09:32:33;29.50;76.80
1359;DHT22;673;48.098;14.422;2023-06-22T09:35:04;29.80;75.30
1359;DHT22;673;48.098;14.422;2023-06-22T09:37:32;30.20;75.10
1359;DHT22;673;48.098;14.422;2023-06-22T09:39:59;29.90;71.30
1359;DHT22;673;48.098;14.422;2023-06-22T09:42:26;29.70;73.50
1359;DHT22;673;48.098;14.422;2023-06-22T09:44:54;29.90;73.50
1359;DHT22;673;48.098;14.422;2023-06-22T09:47:21;29.90;73.30
1359;DHT22;673;48.098;14.422;2023-06-22T09:49:48;29.80;72.50
1359;DHT22;673;48.098;14.422;2023-06-22T09:52:15;30.10;75.40
1359;DHT22;673;48.098;14.422;2023-06-22T09:54:42;30.10;75.00
1359;DHT22;673;48.098;14.422;2023-06-22T09:57:09;30.20;70.80
1359;DHT22;673;48.098;14.422;2023-06-22T09:59:36;30.10;71.90
1359;DHT22;673;48.098;14.422;2023-06-22T10:02:05;30.30;69.60
1359;DHT22;673;48.098;14.422;2023-06-22T10:04:33;30.30;74.00
1359;DHT22;673;48.098;14.422;2023-06-22T10:07:00;30.50;71.60
1359;DHT22;673;48.098;14.422;2023-06-22T10:09:27;30.70;70.00
1359;DHT22;673;48.098;14.422;2023-06-22T10:11:54;30.50;70.10
1359;DHT22;673;48.098;14.422;2023-06-22T10:14:21;30.40;65.60
1359;DHT22;673;48.098;14.422;2023-06-22T10:16:48;30.40;71.60
1359;DHT22;673;48.098;14.422;2023-06-22T10:19:17;30.70;70.80
1359;DHT22;673;48.098;14.422;2023-06-22T10:21:43;30.70;68.90
1359;DHT22;673;48.098;14.422;2023-06-22T10:24:10;31.00;68.80
1359;DHT22;673;48.098;14.422;2023-06-22T10:26:37;31.00;70.00
1359;DHT22;673;48.098;14.422;2023-06-22T10:29:04;31.40;67.20
1359;DHT22;673;48.098;14.422;2023-06-22T10:31:31;31.10;65.40
1359;DHT22;673;48.098;14.422;2023-06-22T10:33:58;30.70;72.70
1359;DHT22;673;48.098;14.422;2023-06-22T10:36:26;31.10;72.30
1359;DHT22;673;48.098;14.422;2023-06-22T10:38:55;31.20;69.60
1359;DHT22;673;48.098;14.422;2023-06-22T10:41:24;31.10;68.30
1359;DHT22;673;48.098;14.422;2023-06-22T10:43:51;31.10;67.70
1359;DHT22;673;48.098;14.422;2023-06-22T10:46:18;31.50;67.30
1359;DHT22;673;48.098;14.422;2023-06-22T10:48:45;31.30;70.30
1359;DHT22;673;48.098;14.422;2023-06-22T10:51:12;31.40;64.10
1359;DHT22;673;48.098;14.422;2023-06-22T10:53:40;31.40;65.20
1359;DHT22;673;48.098;14.422;2023-06-22T10:56:08;31.10;67.50
1359;DHT22;673;48.098;14.422;2023-06-22T10:58:35;31.20;67.60
1359;DHT22;673;48.098;14.422;2023-06-22T11:01:02;31.30;69.70
1359;DHT22;673;48.098;14.422;2023-06-22T11:03:29;31.30;71.30
1359;DHT22;673;48.098;14.422;2023-06-22T11:05:56;31.50;70.10
1359;DHT22;673;48.098;14.422;2023-06-22T11:08:23;31.70;69.10
1359;DHT22;673;48.098;14.422;2023-06-22T11:10:52;31.80;62.40
1359;DHT22;673;48.098;14.422;2023-06-22T11:13:19;31.70;67.60
1359;DHT22;673;48.098;14.422;2023-06-22T11:15:46;31.80;66.90
1359;DHT22;673;48.098;14.422;2023-06-22T11:18:13;31.70;63.10
1359;DHT22;673;48.098;14.422;2023-06-22T11:20:40;31.80;65.90
1359;DHT22;673;48.098;14.422;2023-06-22T11:23:07;31.80;67.40
1359;DHT22;673;48.098;14.422;2023-06-22T11:25:34;31.90;65.90
1359;DHT22;673;48.098;14.422;2023-06-22T11:28:03;32.00;68.10
1359;DHT22;673;48.098;14.422;2023-06-22T11:30:30;31.90;67.40
1359;DHT22;673;48.098;14.422;2023-06-22T11:32:58;31.50;66.10
1359;DHT22;673;48.098;14.422;2023-06-22T11:35:25;31.30;67.70
1359;DHT22;673;48.098;14.422;2023-06-22T11:37:52;31.10;69.10
1359;DHT22;673;48.098;14.422;2023-06-22T11:40:21;31.40;72.00
1359;DHT22;673;48.098;14.422;2023-06-22T11:42:48;31.70;71.40
1359;DHT22;673;48.098;14.422;2023-06-22T11:45:17;32.10;67.50
1359;DHT22;673;48.098;14.422;2023-06-22T11:47:44;31.90;65.40
1359;DHT22;673;48.098;14.422;2023-06-22T11:50:11;31.80;66.80
1359;DHT22;673;48.098;14.422;2023-06-22T11:52:38;32.00;65.80
1359;DHT22;673;48.098;14.422;2023-06-22T11:55:06;32.10;67.20
1359;DHT22;673;48.098;14.422;2023-06-22T11:57:33;32.20;66.10
1359;DHT22;673;48.098;14.422;2023-06-22T12:00:01;32.20;69.80
1359;DHT22;673;48.098;14.422;2023-06-22T12:02:33;32.20;66.80
1359;DHT22;673;48.098;14.422;2023-06-22T12:05:00;32.10;66.60
1359;DHT22;673;48.098;14.422;2023-06-22T12:07:30;32.20;66.70
1359;DHT22;673;48.098;14.422;2023-06-22T12:09:57;32.50;65.50
1359;DHT22;673;48.098;14.422;2023-06-22T12:12:24;32.50;65.20
1359;DHT22;673;48.098;14.422;2023-06-22T12:14:51;32.00;65.30
1359;DHT22;673;48.098;14.422;2023-06-22T12:17:17;31.70;66.10
1359;DHT22;673;48.098;14.422;2023-06-22T12:19:46;31.90;65.60
1359;DHT22;673;48.098;14.422;2023-06-22T12:22:13;31.90;68.10
1359;DHT22;673;48.098;14.422;2023-06-22T12:24:40;31.90;68.70
1359;DHT22;673;48.098;14.422;2023-06-22T12:27:06;32.20;66.40
1359;DHT22;673;48.098;14.422;2023-06-22T12:29:33;32.30;67.40
1359;DHT22;673;48.098;14.422;2023-06-22T12:32:00;32.50;65.30
1359;DHT22;673;48.098;14.422;2023-06-22T12:34:27;32.70;64.20
1359;DHT22;673;48.098;14.422;2023-06-22T12:36:56;32.00;62.70
1359;DHT22;673;48.098;14.422;2023-06-22T12:39:22;32.10;65.70
1359;DHT22;673;48.098;14.422;2023-06-22T12:41:49;32.30;67.90
1359;DHT22;673;48.098;14.422;2023-06-22T12:44:17;32.10;66.00
1359;DHT22;673;48.098;14.422;2023-06-22T12:46:44;32.20;65.10
1359;DHT22;673;48.098;14.422;2023-06-22T12:49:11;32.10;68.00
1359;DHT22;673;48.098;14.422;2023-06-22T12:51:40;32.30;66.20
1359;DHT22;673;48.098;14.422;2023-06-22T12:54:09;32.10;66.90
1359;DHT22;673;48.098;14.422;2023-06-22T12:56:36;32.10;69.10
1359;DHT22;673;48.098;14.422;2023-06-22T12:59:03;32.40;65.70
1359;DHT22;673;48.098;14.422;2023-06-22T13:01:31;32.30;67.40
1359;DHT22;673;48.098;14.422;2023-06-22T13:03:59;32.50;65.50
1359;DHT22;673;48.098;14.422;2023-06-22T13:06:26;32.70;67.80
1359;DHT22;673;48.098;14.422;2023-06-22T13:08:53;32.50;66.10
1359;DHT22;673;48.098;14.422;2023-06-22T13:11:21;32.50;64.80
1359;DHT22;673;48.098;14.422;2023-06-22T13:13:48;32.50;64.60
1359;DHT22;673;48.098;14.422;2023-06-22T13:16:15;32.50;66.60
1359;DHT22;673;48.098;14.422;2023-06-22T13:18:42;32.30;65.70
1359;DHT22;673;48.098;14.422;2023-06-22T13:21:09;31.90;67.10
1359;DHT22;673;48.098;14.422;2023-06-22T13:23:36;32.00;66.80
1359;DHT22;673;48.098;14.422;2023-06-22T13:26:03;31.90;66.20
1359;DHT22;673;48.098;14.422;2023-06-22T13:28:31;32.10;65.80
1359;DHT22;673;48.098;14.422;2023-06-22T13:30:58;32.10;68.00
1359;DHT22;673;48.098;14.422;2023-06-22T13:33:25;32.10;66.30
1359;DHT22;673;48.098;14.422;2023-06-22T13:35:52;32.30;68.30
1359;DHT22;673;48.098;14.422;2023-06-22T13:38:19;32.60;66.10
1359;DHT22;673;48.098;14.422;2023-06-22T13:40:48;31.90;66.40
1359;DHT22;673;48.098;14.422;2023-06-22T13:43:15;31.90;65.80
1359;DHT22;673;48.098;14.422;2023-06-22T13:45:44;31.70;67.30
1359;DHT22;673;48.098;14.422;2023-06-22T13:48:11;31.60;68.00
1359;DHT22;673;48.098;14.422;2023-06-22T13:50:38;31.60;68.60
1359;DHT22;673;48.098;14.422;2023-06-22T13:53:05;31.90;68.60
1359;DHT22;673;48.098;14.422;2023-06-22T13:55:32;32.00;70.00
1359;DHT22;673;48.098;14.422;2023-06-22T13:57:59;32.40;67.50
1359;DHT22;673;48.098;14.422;2023-06-22T14:00:26;32.40;66.40
1359;DHT22;673;48.098;14.422;2023-06-22T14:02:54;32.50;69.50
1359;DHT22;673;48.098;14.422;2023-06-22T14:05:22;32.50;65.60
1359;DHT22;673;48.098;14.422;2023-06-22T14:07:48;32.30;67.20
1359;DHT22;673;48.098;14.422;2023-06-22T14:10:15;32.40;67.20
1359;DHT22;673;48.098;14.422;2023-06-22T14:12:42;32.50;66.50
1359;DHT22;673;48.098;14.422;2023-06-22T14:15:10;32.70;68.60
1359;DHT22;673;48.098;14.422;2023-06-22T14:17:37;32.50;68.90
1359;DHT22;673;48.098;14.422;2023-06-22T14:20:07;32.50;68.10
1359;DHT22;673;48.098;14.422;2023-06-22T14:22:34;32.50;71.20
1359;DHT22;673;48.098;14.422;2023-06-22T14:25:02;32.60;68.60
1359;DHT22;673;48.098;14.422;2023-06-22T14:27:29;32.60;67.20
1359;DHT22;673;48.098;14.422;2023-06-22T14:29:56;32.50;67.30
1359;DHT22;673;48.098;14.422;2023-06-22T14:32:23;32.50;66.80
1359;DHT22;673;48.098;14.422;2023-06-22T14:34:50;32.30;68.20
1359;DHT22;673;48.098;14.422;2023-06-22T14:37:19;32.50;68.10
1359;DHT22;673;48.098;14.422;2023-06-22T14:39:45;32.50;68.70
1359;DHT22;673;48.098;14.422;2023-06-22T14:42:12;32.40;67.90
1359;DHT22;673;48.098;14.422;2023-06-22T14:44:39;32.60;68.30
1359;DHT22;673;48.098;14.422;2023-06-22T14:47:07;32.80;66.30
1359;DHT22;673;48.098;14.422;2023-06-22T14:49:34;32.70;65.90
1359;DHT22;673;48.098;14.422;2023-06-22T14:52:02;32.60;67.00
1359;DHT22;673;48.098;14.422;2023-06-22T14:54:30;32.50;67.40
1359;DHT22;673;48.098;14.422;2023-06-22T14:56:57;32.50;67.40
1359;DHT22;673;48.098;14.422;2023-06-22T14:59:24;33.00;67.60
1359;DHT22;673;48.098;14.422;2023-06-22T15:01:51;32.80;66.90
1359;DHT22;673;48.098;14.422;2023-06-22T15:04:18;32.70;68.60
1359;DHT22;673;48.098;14.422;2023-06-22T15:06:45;32.60;65.10
1359;DHT22;673;48.098;14.422;2023-06-22T15:09:12;32.60;68.80
1359;DHT22;673;48.098;14.422;2023-06-22T15:11:40;32.60;67.60
1359;DHT22;673;48.098;14.422;2023-06-22T15:14:07;32.70;65.30
1359;DHT22;673;48.098;14.422;2023-06-22T15:16:34;32.80;67.00
1359;DHT22;673;48.098;14.422;2023-06-22T15:19:01;32.80;65.30
1359;DHT22;673;48.098;14.422;2023-06-22T15:21:28;32.70;65.60
1359;DHT22;673;48.098;14.422;2023-06-22T15:23:55;32.60;64.40
1359;DHT22;673;48.098;14.422;2023-06-22T15:26:22;32.70;64.90
1359;DHT22;673;48.098;14.422;2023-06-22T15:28:51;33.00;64.20
1359;DHT22;673;48.098;14.422;2023-06-22T15:31:18;33.40;62.70
1359;DHT22;673;48.098;14.422;2023-06-22T15:33:45;33.60;60.70
1359;DHT22;673;48.098;14.422;2023-06-22T15:36:12;33.60;62.20
1359;DHT22;673;48.098;14.422;2023-06-22T15:38:39;33.90;60.80
1359;DHT22;673;48.098;14.422;2023-06-22T15:41:06;34.00;59.90
1359;DHT22;673;48.098;14.422;2023-06-22T15:43:33;33.90;60.10
1359;DHT22;673;48.098;14.422;2023-06-22T15:46:01;34.10;59.90
1359;DHT22;673;48.098;14.422;2023-06-22T15:48:28;33.80;60.90
1359;DHT22;673;48.098;14.422;2023-06-22T15:50:55;33.60;63.30
1359;DHT22;673;48.098;14.422;2023-06-22T15:53:22;33.40;61.10
1359;DHT22;673;48.098;14.422;2023-06-22T15:55:49;33.10;61.70
1359;DHT22;673;48.098;14.422;2023-06-22T15:58:16;33.80;61.40
1359;DHT22;673;48.098;14.422;2023-06-22T16:00:43;34.10;58.90
1359;DHT22;673;48.098;14.422;2023-06-22T16:03:12;34.10;58.50
1359;DHT22;673;48.098;14.422;2023-06-22T16:05:39;33.70;60.10